Clapham, New Mexico
Current Conditions -  °F | °C
As of 2:55 AM on Sunday 21 Dec 2014 (Local Time) from KCAO Reporting Station
Clear Clear  
Wind Chill: 28°   Ceiling: Unl
Heat Index: 35°   Visibility: 10mi
Dew Point: 20°   Wind: 9mph
Humidity: 54%   Direction: 260°W
Pressure: 29.85"   Gusts: NA
Location:  36.2639°N, 103.376°W
Report Text: KCAO 210955Z AUTO 26008KT 10SM CLR 02/M07 A2985 RMK AO2 SLP098 T00171067
Loading
Personal Weather Stations






























Interactive Weather Map New forecast layout! Learn more

10-Day Weather Forecast

Advertisements
Track Severe Weather on mobile